sensor_id;sensor_type;location;lat;lon;timestamp;P1;durP1;ratioP1;P2;durP2;ratioP2
74457;SDS011;62896;51.032;3.712;2024-03-02T00:01:39;2.8;;;0.3;;
74457;SDS011;62896;51.032;3.712;2024-03-02T00:04:59;2.8;;;0.3;;
74457;SDS011;62896;51.032;3.712;2024-03-02T00:08:22;2.8;;;0.3;;
74457;SDS011;62896;51.032;3.712;2024-03-02T00:11:39;2.8;;;0.3;;
74457;SDS011;62896;51.032;3.712;2024-03-02T00:14:59;2.8;;;0.3;;
74457;SDS011;62896;51.032;3.712;2024-03-02T00:18:20;1.1;;;0.5;;
74457;SDS011;62896;51.032;3.712;2024-03-02T00:21:40;1.1;;;0.5;;
74457;SDS011;62896;51.032;3.712;2024-03-02T00:24:59;1.1;;;0.5;;
74457;SDS011;62896;51.032;3.712;2024-03-02T00:28:20;1.1;;;0.5;;
74457;SDS011;62896;51.032;3.712;2024-03-02T00:31:39;1.1;;;0.5;;
74457;SDS011;62896;51.032;3.712;2024-03-02T00:34:59;1.1;;;0.5;;
74457;SDS011;62896;51.032;3.712;2024-03-02T00:38:20;1.1;;;0.5;;
74457;SDS011;62896;51.032;3.712;2024-03-02T00:41:40;1.1;;;0.5;;
74457;SDS011;62896;51.032;3.712;2024-03-02T00:44:59;3.2;;;0.4;;
74457;SDS011;62896;51.032;3.712;2024-03-02T00:48:19;3.2;;;0.4;;
74457;SDS011;62896;51.032;3.712;2024-03-02T00:51:39;3.2;;;0.4;;
74457;SDS011;62896;51.032;3.712;2024-03-02T00:55:00;3.2;;;0.4;;
74457;SDS011;62896;51.032;3.712;2024-03-02T00:58:19;3.2;;;0.4;;
74457;SDS011;62896;51.032;3.712;2024-03-02T01:01:39;3.2;;;0.4;;
74457;SDS011;62896;51.032;3.712;2024-03-02T01:04:59;3.2;;;0.4;;
74457;SDS011;62896;51.032;3.712;2024-03-02T01:08:19;1.9;;;0.5;;
74457;SDS011;62896;51.032;3.712;2024-03-02T01:11:40;1.9;;;0.5;;
74457;SDS011;62896;51.032;3.712;2024-03-02T01:14:59;1.9;;;0.5;;
74457;SDS011;62896;51.032;3.712;2024-03-02T01:18:19;1.9;;;0.5;;
74457;SDS011;62896;51.032;3.712;2024-03-02T01:21:40;1.9;;;0.5;;
74457;SDS011;62896;51.032;3.712;2024-03-02T01:24:59;1.9;;;0.5;;
74457;SDS011;62896;51.032;3.712;2024-03-02T01:28:20;1.9;;;0.5;;
74457;SDS011;62896;51.032;3.712;2024-03-02T01:31:39;1.9;;;0.5;;
74457;SDS011;62896;51.032;3.712;2024-03-02T01:34:59;2.4;;;0.6;;
74457;SDS011;62896;51.032;3.712;2024-03-02T01:38:19;2.4;;;0.6;;
74457;SDS011;62896;51.032;3.712;2024-03-02T01:41:39;2.4;;;0.6;;
74457;SDS011;62896;51.032;3.712;2024-03-02T01:45:00;2.4;;;0.6;;
74457;SDS011;62896;51.032;3.712;2024-03-02T01:48:19;2.4;;;0.6;;
74457;SDS011;62896;51.032;3.712;2024-03-02T01:51:40;2.4;;;0.6;;
74457;SDS011;62896;51.032;3.712;2024-03-02T01:55:00;2.4;;;0.6;;
74457;SDS011;62896;51.032;3.712;2024-03-02T01:58:20;1.8;;;0.9;;
74457;SDS011;62896;51.032;3.712;2024-03-02T02:01:40;1.8;;;0.9;;
74457;SDS011;62896;51.032;3.712;2024-03-02T02:05:00;1.8;;;0.9;;
74457;SDS011;62896;51.032;3.712;2024-03-02T02:08:20;1.8;;;0.9;;
74457;SDS011;62896;51.032;3.712;2024-03-02T02:11:40;1.8;;;0.9;;
74457;SDS011;62896;51.032;3.712;2024-03-02T02:15:00;1.8;;;0.9;;
74457;SDS011;62896;51.032;3.712;2024-03-02T02:18:20;1.8;;;0.9;;
74457;SDS011;62896;51.032;3.712;2024-03-02T02:21:41;1.8;;;0.9;;
74457;SDS011;62896;51.032;3.712;2024-03-02T02:25:00;3.4;;;0.8;;
74457;SDS011;62896;51.032;3.712;2024-03-02T02:28:20;3.4;;;0.8;;
74457;SDS011;62896;51.032;3.712;2024-03-02T02:31:40;3.4;;;0.8;;
74457;SDS011;62896;51.032;3.712;2024-03-02T02:35:00;3.4;;;0.8;;
74457;SDS011;62896;51.032;3.712;2024-03-02T02:38:20;3.4;;;0.8;;
74457;SDS011;62896;51.032;3.712;2024-03-02T02:41:40;3.4;;;0.8;;
74457;SDS011;62896;51.032;3.712;2024-03-02T02:45:00;3.4;;;0.8;;
74457;SDS011;62896;51.032;3.712;2024-03-02T02:48:20;4.5;;;1.2;;
74457;SDS011;62896;51.032;3.712;2024-03-02T02:51:40;4.5;;;1.2;;
74457;SDS011;62896;51.032;3.712;2024-03-02T02:55:00;4.5;;;1.2;;
74457;SDS011;62896;51.032;3.712;2024-03-02T02:58:20;4.5;;;1.2;;
74457;SDS011;62896;51.032;3.712;2024-03-02T03:01:40;4.5;;;1.2;;
74457;SDS011;62896;51.032;3.712;2024-03-02T03:05:00;4.5;;;1.2;;
74457;SDS011;62896;51.032;3.712;2024-03-02T03:08:20;4.5;;;1.2;;
74457;SDS011;62896;51.032;3.712;2024-03-02T03:11:40;4.5;;;1.2;;
74457;SDS011;62896;51.032;3.712;2024-03-02T03:15:00;2.8;;;1.2;;
74457;SDS011;62896;51.032;3.712;2024-03-02T03:18:20;2.8;;;1.2;;
74457;SDS011;62896;51.032;3.712;2024-03-02T03:21:40;2.8;;;1.2;;
74457;SDS011;62896;51.032;3.712;2024-03-02T03:25:00;2.8;;;1.2;;
74457;SDS011;62896;51.032;3.712;2024-03-02T03:28:20;2.8;;;1.2;;
74457;SDS011;62896;51.032;3.712;2024-03-02T03:31:40;2.8;;;1.2;;
74457;SDS011;62896;51.032;3.712;2024-03-02T03:35:00;2.8;;;1.2;;
74457;SDS011;62896;51.032;3.712;2024-03-02T03:38:20;3;;;0.9;;
74457;SDS011;62896;51.032;3.712;2024-03-02T03:41:40;3;;;0.9;;
74457;SDS011;62896;51.032;3.712;2024-03-02T03:45:00;3;;;0.9;;
74457;SDS011;62896;51.032;3.712;2024-03-02T03:48:20;3;;;0.9;;
74457;SDS011;62896;51.032;3.712;2024-03-02T03:51:40;3;;;0.9;;
74457;SDS011;62896;51.032;3.712;2024-03-02T03:55:00;3;;;0.9;;
74457;SDS011;62896;51.032;3.712;2024-03-02T03:58:20;3;;;0.9;;
74457;SDS011;62896;51.032;3.712;2024-03-02T04:01:40;3;;;0.9;;
74457;SDS011;62896;51.032;3.712;2024-03-02T04:05:00;3.1;;;0.8;;
74457;SDS011;62896;51.032;3.712;2024-03-02T04:08:20;3.1;;;0.8;;
74457;SDS011;62896;51.032;3.712;2024-03-02T04:11:40;3.1;;;0.8;;
74457;SDS011;62896;51.032;3.712;2024-03-02T04:15:00;3.1;;;0.8;;
74457;SDS011;62896;51.032;3.712;2024-03-02T04:18:20;3.1;;;0.8;;
74457;SDS011;62896;51.032;3.712;2024-03-02T04:21:40;3.1;;;0.8;;
74457;SDS011;62896;51.032;3.712;2024-03-02T04:25:00;3.1;;;0.8;;
74457;SDS011;62896;51.032;3.712;2024-03-02T04:28:20;3.4;;;0.7;;
74457;SDS011;62896;51.032;3.712;2024-03-02T04:31:40;3.4;;;0.7;;
74457;SDS011;62896;51.032;3.712;2024-03-02T04:35:00;3.4;;;0.7;;
74457;SDS011;62896;51.032;3.712;2024-03-02T04:38:20;3.4;;;0.7;;
74457;SDS011;62896;51.032;3.712;2024-03-02T04:41:40;3.4;;;0.7;;
74457;SDS011;62896;51.032;3.712;2024-03-02T04:45:00;3.4;;;0.7;;
74457;SDS011;62896;51.032;3.712;2024-03-02T04:48:20;3.4;;;0.7;;
74457;SDS011;62896;51.032;3.712;2024-03-02T04:51:40;3.4;;;0.7;;
74457;SDS011;62896;51.032;3.712;2024-03-02T04:55:00;6.8;;;1;;
74457;SDS011;62896;51.032;3.712;2024-03-02T04:58:20;6.8;;;1;;
74457;SDS011;62896;51.032;3.712;2024-03-02T05:01:40;6.8;;;1;;
74457;SDS011;62896;51.032;3.712;2024-03-02T05:05:00;6.8;;;1;;
74457;SDS011;62896;51.032;3.712;2024-03-02T05:08:20;6.8;;;1;;
74457;SDS011;62896;51.032;3.712;2024-03-02T05:11:40;6.8;;;1;;
74457;SDS011;62896;51.032;3.712;2024-03-02T05:15:00;6.8;;;1;;
74457;SDS011;62896;51.032;3.712;2024-03-02T05:18:20;2.5;;;0.5;;
74457;SDS011;62896;51.032;3.712;2024-03-02T05:21:40;2.5;;;0.5;;
74457;SDS011;62896;51.032;3.712;2024-03-02T05:25:00;2.5;;;0.5;;
74457;SDS011;62896;51.032;3.712;2024-03-02T05:28:20;2.5;;;0.5;;
74457;SDS011;62896;51.032;3.712;2024-03-02T05:31:40;2.5;;;0.5;;
74457;SDS011;62896;51.032;3.712;2024-03-02T05:35:00;2.5;;;0.5;;
74457;SDS011;62896;51.032;3.712;2024-03-02T05:38:20;2.5;;;0.5;;
74457;SDS011;62896;51.032;3.712;2024-03-02T05:41:40;2.5;;;0.5;;
74457;SDS011;62896;51.032;3.712;2024-03-02T05:45:00;2.5;;;0.6;;
74457;SDS011;62896;51.032;3.712;2024-03-02T05:48:20;2.5;;;0.6;;
74457;SDS011;62896;51.032;3.712;2024-03-02T05:51:40;2.5;;;0.6;;
74457;SDS011;62896;51.032;3.712;2024-03-02T05:55:00;2.5;;;0.6;;
74457;SDS011;62896;51.032;3.712;2024-03-02T05:58:20;2.5;;;0.6;;
74457;SDS011;62896;51.032;3.712;2024-03-02T06:01:40;2.5;;;0.6;;
74457;SDS011;62896;51.032;3.712;2024-03-02T06:05:00;2.5;;;0.6;;
74457;SDS011;62896;51.032;3.712;2024-03-02T06:08:20;3.9;;;0.8;;
74457;SDS011;62896;51.032;3.712;2024-03-02T06:11:40;3.9;;;0.8;;
74457;SDS011;62896;51.032;3.712;2024-03-02T06:15:00;3.9;;;0.8;;
74457;SDS011;62896;51.032;3.712;2024-03-02T06:18:20;3.9;;;0.8;;
74457;SDS011;62896;51.032;3.712;2024-03-02T06:21:40;3.9;;;0.8;;
74457;SDS011;62896;51.032;3.712;2024-03-02T06:25:00;3.9;;;0.8;;
74457;SDS011;62896;51.032;3.712;2024-03-02T06:28:20;3.9;;;0.8;;
74457;SDS011;62896;51.032;3.712;2024-03-02T06:31:40;3.9;;;0.8;;
74457;SDS011;62896;51.032;3.712;2024-03-02T06:35:00;2.7;;;0.6;;
74457;SDS011;62896;51.032;3.712;2024-03-02T06:38:20;2.7;;;0.6;;
74457;SDS011;62896;51.032;3.712;2024-03-02T06:41:40;2.7;;;0.6;;
74457;SDS011;62896;51.032;3.712;2024-03-02T06:45:00;2.7;;;0.6;;
74457;SDS011;62896;51.032;3.712;2024-03-02T06:48:20;2.7;;;0.6;;
74457;SDS011;62896;51.032;3.712;2024-03-02T06:51:40;2.7;;;0.6;;
74457;SDS011;62896;51.032;3.712;2024-03-02T06:55:00;2.7;;;0.6;;
74457;SDS011;62896;51.032;3.712;2024-03-02T06:58:20;2.4;;;0.7;;
74457;SDS011;62896;51.032;3.712;2024-03-02T07:01:40;2.4;;;0.7;;
74457;SDS011;62896;51.032;3.712;2024-03-02T07:05:00;2.4;;;0.7;;
74457;SDS011;62896;51.032;3.712;2024-03-02T07:08:20;2.4;;;0.7;;
74457;SDS011;62896;51.032;3.712;2024-03-02T07:11:40;2.4;;;0.7;;
74457;SDS011;62896;51.032;3.712;2024-03-02T07:15:00;2.4;;;0.7;;
74457;SDS011;62896;51.032;3.712;2024-03-02T07:18:20;2.4;;;0.7;;
74457;SDS011;62896;51.032;3.712;2024-03-02T07:21:40;2.4;;;0.7;;
74457;SDS011;62896;51.032;3.712;2024-03-02T07:25:00;5.2;;;0.6;;
74457;SDS011;62896;51.032;3.712;2024-03-02T07:28:20;5.2;;;0.6;;
74457;SDS011;62896;51.032;3.712;2024-03-02T07:31:40;5.2;;;0.6;;
74457;SDS011;62896;51.032;3.712;2024-03-02T07:35:00;5.2;;;0.6;;
74457;SDS011;62896;51.032;3.712;2024-03-02T07:38:20;5.2;;;0.6;;
74457;SDS011;62896;51.032;3.712;2024-03-02T07:41:40;5.2;;;0.6;;
74457;SDS011;62896;51.032;3.712;2024-03-02T07:45:00;5.2;;;0.6;;
74457;SDS011;62896;51.032;3.712;2024-03-02T07:48:20;4.9;;;0.9;;
74457;SDS011;62896;51.032;3.712;2024-03-02T07:51:40;4.9;;;0.9;;
74457;SDS011;62896;51.032;3.712;2024-03-02T07:55:00;4.9;;;0.9;;
74457;SDS011;62896;51.032;3.712;2024-03-02T07:58:20;4.9;;;0.9;;
74457;SDS011;62896;51.032;3.712;2024-03-02T08:01:40;4.9;;;0.9;;
74457;SDS011;62896;51.032;3.712;2024-03-02T08:05:00;4.9;;;0.9;;
74457;SDS011;62896;51.032;3.712;2024-03-02T08:08:20;4.9;;;0.9;;
74457;SDS011;62896;51.032;3.712;2024-03-02T08:11:40;4.9;;;0.9;;
74457;SDS011;62896;51.032;3.712;2024-03-02T08:15:00;4.1;;;0.7;;
74457;SDS011;62896;51.032;3.712;2024-03-02T08:18:20;4.1;;;0.7;;
74457;SDS011;62896;51.032;3.712;2024-03-02T08:21:40;4.1;;;0.7;;
74457;SDS011;62896;51.032;3.712;2024-03-02T08:25:00;4.1;;;0.7;;
74457;SDS011;62896;51.032;3.712;2024-03-02T08:28:20;4.1;;;0.7;;
74457;SDS011;62896;51.032;3.712;2024-03-02T08:31:40;4.1;;;0.7;;
74457;SDS011;62896;51.032;3.712;2024-03-02T08:35:00;4.1;;;0.7;;
74457;SDS011;62896;51.032;3.712;2024-03-02T08:38:20;5.5;;;1.1;;
74457;SDS011;62896;51.032;3.712;2024-03-02T08:41:40;5.5;;;1.1;;
74457;SDS011;62896;51.032;3.712;2024-03-02T08:45:00;5.5;;;1.1;;
74457;SDS011;62896;51.032;3.712;2024-03-02T08:48:20;5.5;;;1.1;;
74457;SDS011;62896;51.032;3.712;2024-03-02T08:51:40;5.5;;;1.1;;
74457;SDS011;62896;51.032;3.712;2024-03-02T08:55:00;5.5;;;1.1;;
74457;SDS011;62896;51.032;3.712;2024-03-02T08:58:20;5.5;;;1.1;;
74457;SDS011;62896;51.032;3.712;2024-03-02T09:01:40;5.5;;;1.1;;
74457;SDS011;62896;51.032;3.712;2024-03-02T09:05:00;9.7;;;1.5;;
74457;SDS011;62896;51.032;3.712;2024-03-02T09:08:20;9.7;;;1.5;;
74457;SDS011;62896;51.032;3.712;2024-03-02T09:11:40;9.7;;;1.5;;
74457;SDS011;62896;51.032;3.712;2024-03-02T09:15:00;9.7;;;1.5;;
74457;SDS011;62896;51.032;3.712;2024-03-02T09:18:20;9.7;;;1.5;;
74457;SDS011;62896;51.032;3.712;2024-03-02T09:21:41;9.7;;;1.5;;
74457;SDS011;62896;51.032;3.712;2024-03-02T09:25:00;9.7;;;1.5;;
74457;SDS011;62896;51.032;3.712;2024-03-02T09:28:20;7.6;;;1.3;;
74457;SDS011;62896;51.032;3.712;2024-03-02T09:31:40;7.6;;;1.3;;
74457;SDS011;62896;51.032;3.712;2024-03-02T09:35:00;7.6;;;1.3;;
74457;SDS011;62896;51.032;3.712;2024-03-02T09:38:20;7.6;;;1.3;;
74457;SDS011;62896;51.032;3.712;2024-03-02T09:41:40;7.6;;;1.3;;
74457;SDS011;62896;51.032;3.712;2024-03-02T09:45:00;7.6;;;1.3;;
74457;SDS011;62896;51.032;3.712;2024-03-02T09:48:20;7.6;;;1.3;;
74457;SDS011;62896;51.032;3.712;2024-03-02T09:51:40;7.6;;;1.3;;
74457;SDS011;62896;51.032;3.712;2024-03-02T09:55:00;6.5;;;1.1;;
74457;SDS011;62896;51.032;3.712;2024-03-02T09:58:20;6.5;;;1.1;;
74457;SDS011;62896;51.032;3.712;2024-03-02T10:01:40;6.5;;;1.1;;
74457;SDS011;62896;51.032;3.712;2024-03-02T10:05:00;6.5;;;1.1;;
74457;SDS011;62896;51.032;3.712;2024-03-02T10:08:20;6.5;;;1.1;;
74457;SDS011;62896;51.032;3.712;2024-03-02T10:11:40;6.5;;;1.1;;
74457;SDS011;62896;51.032;3.712;2024-03-02T10:15:02;6.5;;;1.1;;
74457;SDS011;62896;51.032;3.712;2024-03-02T10:18:26;5.8;;;1.2;;
74457;SDS011;62896;51.032;3.712;2024-03-02T10:21:40;5.8;;;1.2;;
74457;SDS011;62896;51.032;3.712;2024-03-02T10:25:00;5.8;;;1.2;;
74457;SDS011;62896;51.032;3.712;2024-03-02T10:28:20;5.8;;;1.2;;
74457;SDS011;62896;51.032;3.712;2024-03-02T10:31:40;5.8;;;1.2;;
74457;SDS011;62896;51.032;3.712;2024-03-02T10:35:00;5.8;;;1.2;;
74457;SDS011;62896;51.032;3.712;2024-03-02T10:38:20;5.8;;;1.2;;
74457;SDS011;62896;51.032;3.712;2024-03-02T10:41:40;5.8;;;1.2;;
74457;SDS011;62896;51.032;3.712;2024-03-02T10:45:00;8.6;;;1.4;;
74457;SDS011;62896;51.032;3.712;2024-03-02T10:48:20;8.6;;;1.4;;
74457;SDS011;62896;51.032;3.712;2024-03-02T10:51:40;8.6;;;1.4;;
74457;SDS011;62896;51.032;3.712;2024-03-02T10:55:00;8.6;;;1.4;;
74457;SDS011;62896;51.032;3.712;2024-03-02T10:58:20;8.6;;;1.4;;
74457;SDS011;62896;51.032;3.712;2024-03-02T11:01:40;8.6;;;1.4;;
74457;SDS011;62896;51.032;3.712;2024-03-02T11:05:00;8.6;;;1.4;;
74457;SDS011;62896;51.032;3.712;2024-03-02T11:08:20;8.2;;;1.4;;
74457;SDS011;62896;51.032;3.712;2024-03-02T11:11:40;8.2;;;1.4;;
74457;SDS011;62896;51.032;3.712;2024-03-02T11:15:00;8.2;;;1.4;;
74457;SDS011;62896;51.032;3.712;2024-03-02T11:18:20;8.2;;;1.4;;
74457;SDS011;62896;51.032;3.712;2024-03-02T11:21:40;8.2;;;1.4;;
74457;SDS011;62896;51.032;3.712;2024-03-02T11:25:00;8.2;;;1.4;;
74457;SDS011;62896;51.032;3.712;2024-03-02T11:28:22;8.2;;;1.4;;
74457;SDS011;62896;51.032;3.712;2024-03-02T11:32:44;8.2;;;1.4;;
74457;SDS011;62896;51.032;3.712;2024-03-02T11:35:00;5.5;;;1.1;;
74457;SDS011;62896;51.032;3.712;2024-03-02T11:38:20;5.5;;;1.1;;
74457;SDS011;62896;51.032;3.712;2024-03-02T11:41:40;5.5;;;1.1;;
74457;SDS011;62896;51.032;3.712;2024-03-02T11:45:00;5.5;;;1.1;;
74457;SDS011;62896;51.032;3.712;2024-03-02T11:48:20;5.5;;;1.1;;
74457;SDS011;62896;51.032;3.712;2024-03-02T11:51:40;5.5;;;1.1;;
74457;SDS011;62896;51.032;3.712;2024-03-02T11:55:00;5.5;;;1.1;;
74457;SDS011;62896;51.032;3.712;2024-03-02T11:58:20;7.7;;;1.2;;
74457;SDS011;62896;51.032;3.712;2024-03-02T12:01:40;7.7;;;1.2;;
74457;SDS011;62896;51.032;3.712;2024-03-02T12:05:02;7.7;;;1.2;;
74457;SDS011;62896;51.032;3.712;2024-03-02T12:08:20;7.7;;;1.2;;
74457;SDS011;62896;51.032;3.712;2024-03-02T12:11:40;7.7;;;1.2;;
74457;SDS011;62896;51.032;3.712;2024-03-02T12:15:00;7.7;;;1.2;;
74457;SDS011;62896;51.032;3.712;2024-03-02T12:18:20;7.7;;;1.2;;
74457;SDS011;62896;51.032;3.712;2024-03-02T12:21:40;7.7;;;1.2;;
74457;SDS011;62896;51.032;3.712;2024-03-02T12:25:00;6.2;;;1.1;;
74457;SDS011;62896;51.032;3.712;2024-03-02T12:28:20;6.2;;;1.1;;
74457;SDS011;62896;51.032;3.712;2024-03-02T12:31:40;6.2;;;1.1;;
74457;SDS011;62896;51.032;3.712;2024-03-02T12:35:00;6.2;;;1.1;;
74457;SDS011;62896;51.032;3.712;2024-03-02T12:38:20;6.2;;;1.1;;
74457;SDS011;62896;51.032;3.712;2024-03-02T12:41:40;6.2;;;1.1;;
74457;SDS011;62896;51.032;3.712;2024-03-02T12:45:00;6.2;;;1.1;;
74457;SDS011;62896;51.032;3.712;2024-03-02T12:48:20;5.4;;;1.1;;
74457;SDS011;62896;51.032;3.712;2024-03-02T12:51:40;5.4;;;1.1;;
74457;SDS011;62896;51.032;3.712;2024-03-02T12:55:00;5.4;;;1.1;;
74457;SDS011;62896;51.032;3.712;2024-03-02T12:58:22;5.4;;;1.1;;
74457;SDS011;62896;51.032;3.712;2024-03-02T13:01:49;5.4;;;1.1;;
74457;SDS011;62896;51.032;3.712;2024-03-02T13:05:00;5.4;;;1.1;;
74457;SDS011;62896;51.032;3.712;2024-03-02T13:08:20;5.4;;;1.1;;
74457;SDS011;62896;51.032;3.712;2024-03-02T13:11:40;5.4;;;1.1;;
74457;SDS011;62896;51.032;3.712;2024-03-02T13:15:00;8;;;1.3;;
74457;SDS011;62896;51.032;3.712;2024-03-02T13:18:20;8;;;1.3;;
74457;SDS011;62896;51.032;3.712;2024-03-02T13:21:40;8;;;1.3;;
74457;SDS011;62896;51.032;3.712;2024-03-02T13:25:00;8;;;1.3;;
74457;SDS011;62896;51.032;3.712;2024-03-02T13:28:20;8;;;1.3;;
74457;SDS011;62896;51.032;3.712;2024-03-02T13:31:40;8;;;1.3;;
74457;SDS011;62896;51.032;3.712;2024-03-02T13:35:00;8;;;1.3;;
74457;SDS011;62896;51.032;3.712;2024-03-02T13:38:20;6;;;1.3;;
74457;SDS011;62896;51.032;3.712;2024-03-02T13:41:40;6;;;1.3;;
74457;SDS011;62896;51.032;3.712;2024-03-02T13:45:00;6;;;1.3;;
74457;SDS011;62896;51.032;3.712;2024-03-02T13:48:20;6;;;1.3;;
74457;SDS011;62896;51.032;3.712;2024-03-02T13:51:40;6;;;1.3;;
74457;SDS011;62896;51.032;3.712;2024-03-02T13:55:00;6;;;1.3;;
74457;SDS011;62896;51.032;3.712;2024-03-02T13:58:20;6;;;1.3;;
74457;SDS011;62896;51.032;3.712;2024-03-02T14:01:40;6;;;1.3;;
74457;SDS011;62896;51.032;3.712;2024-03-02T14:05:00;5;;;1.4;;
74457;SDS011;62896;51.032;3.712;2024-03-02T14:08:20;5;;;1.4;;
74457;SDS011;62896;51.032;3.712;2024-03-02T14:11:40;5;;;1.4;;
74457;SDS011;62896;51.032;3.712;2024-03-02T14:15:00;5;;;1.4;;
74457;SDS011;62896;51.032;3.712;2024-03-02T14:18:20;5;;;1.4;;
74457;SDS011;62896;51.032;3.712;2024-03-02T14:21:40;5;;;1.4;;
74457;SDS011;62896;51.032;3.712;2024-03-02T14:25:00;5;;;1.4;;
74457;SDS011;62896;51.032;3.712;2024-03-02T14:28:20;6.7;;;1.4;;
74457;SDS011;62896;51.032;3.712;2024-03-02T14:31:40;6.7;;;1.4;;
74457;SDS011;62896;51.032;3.712;2024-03-02T14:35:00;6.7;;;1.4;;
74457;SDS011;62896;51.032;3.712;2024-03-02T14:38:20;6.7;;;1.4;;
74457;SDS011;62896;51.032;3.712;2024-03-02T14:41:40;6.7;;;1.4;;
74457;SDS011;62896;51.032;3.712;2024-03-02T14:45:00;6.7;;;1.4;;
74457;SDS011;62896;51.032;3.712;2024-03-02T14:48:20;6.7;;;1.4;;
74457;SDS011;62896;51.032;3.712;2024-03-02T14:51:40;6.7;;;1.4;;
74457;SDS011;62896;51.032;3.712;2024-03-02T14:55:00;7.1;;;1.3;;
74457;SDS011;62896;51.032;3.712;2024-03-02T14:58:20;7.1;;;1.3;;
74457;SDS011;62896;51.032;3.712;2024-03-02T15:01:40;7.1;;;1.3;;
74457;SDS011;62896;51.032;3.712;2024-03-02T15:05:00;7.1;;;1.3;;
74457;SDS011;62896;51.032;3.712;2024-03-02T15:08:20;7.1;;;1.3;;
74457;SDS011;62896;51.032;3.712;2024-03-02T15:11:40;7.1;;;1.3;;
74457;SDS011;62896;51.032;3.712;2024-03-02T15:15:00;7.1;;;1.3;;
74457;SDS011;62896;51.032;3.712;2024-03-02T15:18:20;9.3;;;3.8;;
74457;SDS011;62896;51.032;3.712;2024-03-02T15:21:40;9.3;;;3.8;;
74457;SDS011;62896;51.032;3.712;2024-03-02T15:25:00;9.3;;;3.8;;
74457;SDS011;62896;51.032;3.712;2024-03-02T15:28:20;9.3;;;3.8;;
74457;SDS011;62896;51.032;3.712;2024-03-02T15:31:40;9.3;;;3.8;;
74457;SDS011;62896;51.032;3.712;2024-03-02T15:35:00;9.3;;;3.8;;
74457;SDS011;62896;51.032;3.712;2024-03-02T15:38:20;9.3;;;3.8;;
74457;SDS011;62896;51.032;3.712;2024-03-02T15:41:40;9.3;;;3.8;;
74457;SDS011;62896;51.032;3.712;2024-03-02T15:45:00;4.4;;;1.4;;
74457;SDS011;62896;51.032;3.712;2024-03-02T15:48:20;4.4;;;1.4;;
74457;SDS011;62896;51.032;3.712;2024-03-02T15:51:40;4.4;;;1.4;;
74457;SDS011;62896;51.032;3.712;2024-03-02T15:55:00;4.4;;;1.4;;
74457;SDS011;62896;51.032;3.712;2024-03-02T15:58:20;4.4;;;1.4;;
74457;SDS011;62896;51.032;3.712;2024-03-02T16:01:40;4.4;;;1.4;;
74457;SDS011;62896;51.032;3.712;2024-03-02T16:05:00;4.4;;;1.4;;
74457;SDS011;62896;51.032;3.712;2024-03-02T16:08:20;4.4;;;1.3;;
74457;SDS011;62896;51.032;3.712;2024-03-02T16:11:40;4.4;;;1.3;;
74457;SDS011;62896;51.032;3.712;2024-03-02T16:15:00;4.4;;;1.3;;
74457;SDS011;62896;51.032;3.712;2024-03-02T16:18:20;4.4;;;1.3;;
74457;SDS011;62896;51.032;3.712;2024-03-02T16:21:40;4.4;;;1.3;;
74457;SDS011;62896;51.032;3.712;2024-03-02T16:25:00;4.4;;;1.3;;
74457;SDS011;62896;51.032;3.712;2024-03-02T16:28:20;4.4;;;1.3;;
74457;SDS011;62896;51.032;3.712;2024-03-02T16:31:40;4.4;;;1.3;;
74457;SDS011;62896;51.032;3.712;2024-03-02T16:35:00;4.6;;;0.9;;
74457;SDS011;62896;51.032;3.712;2024-03-02T16:38:20;4.6;;;0.9;;
74457;SDS011;62896;51.032;3.712;2024-03-02T16:41:40;4.6;;;0.9;;
74457;SDS011;62896;51.032;3.712;2024-03-02T16:45:00;4.6;;;0.9;;
74457;SDS011;62896;51.032;3.712;2024-03-02T16:48:20;4.6;;;0.9;;
74457;SDS011;62896;51.032;3.712;2024-03-02T16:51:40;4.6;;;0.9;;
74457;SDS011;62896;51.032;3.712;2024-03-02T16:55:00;4.6;;;0.9;;
74457;SDS011;62896;51.032;3.712;2024-03-02T16:58:20;3.9;;;1;;
74457;SDS011;62896;51.032;3.712;2024-03-02T17:01:40;3.9;;;1;;
74457;SDS011;62896;51.032;3.712;2024-03-02T17:05:00;3.9;;;1;;
74457;SDS011;62896;51.032;3.712;2024-03-02T17:08:20;3.9;;;1;;
74457;SDS011;62896;51.032;3.712;2024-03-02T17:11:40;3.9;;;1;;
74457;SDS011;62896;51.032;3.712;2024-03-02T17:15:00;3.9;;;1;;
74457;SDS011;62896;51.032;3.712;2024-03-02T17:18:20;3.9;;;1;;
74457;SDS011;62896;51.032;3.712;2024-03-02T17:21:40;3.9;;;1;;
74457;SDS011;62896;51.032;3.712;2024-03-02T17:25:00;3;;;1.5;;
74457;SDS011;62896;51.032;3.712;2024-03-02T17:28:21;3;;;1.5;;
74457;SDS011;62896;51.032;3.712;2024-03-02T17:31:40;3;;;1.5;;
74457;SDS011;62896;51.032;3.712;2024-03-02T17:35:00;3;;;1.5;;
74457;SDS011;62896;51.032;3.712;2024-03-02T17:38:20;3;;;1.5;;
74457;SDS011;62896;51.032;3.712;2024-03-02T17:41:40;3;;;1.5;;
74457;SDS011;62896;51.032;3.712;2024-03-02T17:45:00;3;;;1.5;;
74457;SDS011;62896;51.032;3.712;2024-03-02T17:48:20;3.6;;;1.8;;
74457;SDS011;62896;51.032;3.712;2024-03-02T17:51:40;3.6;;;1.8;;
74457;SDS011;62896;51.032;3.712;2024-03-02T17:55:00;3.6;;;1.8;;
74457;SDS011;62896;51.032;3.712;2024-03-02T17:58:20;3.6;;;1.8;;
74457;SDS011;62896;51.032;3.712;2024-03-02T18:01:40;3.6;;;1.8;;
74457;SDS011;62896;51.032;3.712;2024-03-02T18:05:00;3.6;;;1.8;;
74457;SDS011;62896;51.032;3.712;2024-03-02T18:08:20;3.6;;;1.8;;
74457;SDS011;62896;51.032;3.712;2024-03-02T18:11:40;3.6;;;1.8;;
74457;SDS011;62896;51.032;3.712;2024-03-02T18:15:00;3.3;;;2.3;;
74457;SDS011;62896;51.032;3.712;2024-03-02T18:18:20;3.3;;;2.3;;
74457;SDS011;62896;51.032;3.712;2024-03-02T18:21:40;3.3;;;2.3;;
74457;SDS011;62896;51.032;3.712;2024-03-02T18:25:00;3.3;;;2.3;;
74457;SDS011;62896;51.032;3.712;2024-03-02T18:28:20;3.3;;;2.3;;
74457;SDS011;62896;51.032;3.712;2024-03-02T18:31:40;3.3;;;2.3;;
74457;SDS011;62896;51.032;3.712;2024-03-02T18:35:00;3.3;;;2.3;;
74457;SDS011;62896;51.032;3.712;2024-03-02T18:38:20;5.3;;;4.1;;
74457;SDS011;62896;51.032;3.712;2024-03-02T18:41:40;5.3;;;4.1;;
74457;SDS011;62896;51.032;3.712;2024-03-02T18:45:00;5.3;;;4.1;;
74457;SDS011;62896;51.032;3.712;2024-03-02T18:48:20;5.3;;;4.1;;
74457;SDS011;62896;51.032;3.712;2024-03-02T18:51:40;5.3;;;4.1;;
74457;SDS011;62896;51.032;3.712;2024-03-02T18:55:00;5.3;;;4.1;;
74457;SDS011;62896;51.032;3.712;2024-03-02T18:58:20;5.3;;;4.1;;
74457;SDS011;62896;51.032;3.712;2024-03-02T19:01:40;5.3;;;4.1;;
74457;SDS011;62896;51.032;3.712;2024-03-02T19:05:00;3.1;;;2.7;;
74457;SDS011;62896;51.032;3.712;2024-03-02T19:08:20;3.1;;;2.7;;
74457;SDS011;62896;51.032;3.712;2024-03-02T19:11:40;3.1;;;2.7;;
74457;SDS011;62896;51.032;3.712;2024-03-02T19:15:00;3.1;;;2.7;;
74457;SDS011;62896;51.032;3.712;2024-03-02T19:18:20;3.1;;;2.7;;
74457;SDS011;62896;51.032;3.712;2024-03-02T19:21:40;3.1;;;2.7;;
74457;SDS011;62896;51.032;3.712;2024-03-02T19:25:00;3.1;;;2.7;;
74457;SDS011;62896;51.032;3.712;2024-03-02T19:28:20;4;;;3.2;;
74457;SDS011;62896;51.032;3.712;2024-03-02T19:31:40;4;;;3.2;;
74457;SDS011;62896;51.032;3.712;2024-03-02T19:35:00;4;;;3.2;;
74457;SDS011;62896;51.032;3.712;2024-03-02T19:38:20;4;;;3.2;;
74457;SDS011;62896;51.032;3.712;2024-03-02T19:41:40;4;;;3.2;;
74457;SDS011;62896;51.032;3.712;2024-03-02T19:45:00;4;;;3.2;;
74457;SDS011;62896;51.032;3.712;2024-03-02T19:48:20;4;;;3.2;;
74457;SDS011;62896;51.032;3.712;2024-03-02T19:51:40;4;;;3.2;;
74457;SDS011;62896;51.032;3.712;2024-03-02T19:55:00;5.2;;;3.8;;
74457;SDS011;62896;51.032;3.712;2024-03-02T19:58:20;5.2;;;3.8;;
74457;SDS011;62896;51.032;3.712;2024-03-02T20:01:40;5.2;;;3.8;;
74457;SDS011;62896;51.032;3.712;2024-03-02T20:05:00;5.2;;;3.8;;
74457;SDS011;62896;51.032;3.712;2024-03-02T20:08:20;5.2;;;3.8;;
74457;SDS011;62896;51.032;3.712;2024-03-02T20:11:40;5.2;;;3.8;;
74457;SDS011;62896;51.032;3.712;2024-03-02T20:15:00;5.2;;;3.8;;
74457;SDS011;62896;51.032;3.712;2024-03-02T20:18:20;5.4;;;3.9;;
74457;SDS011;62896;51.032;3.712;2024-03-02T20:21:40;5.4;;;3.9;;
74457;SDS011;62896;51.032;3.712;2024-03-02T20:25:00;5.4;;;3.9;;
74457;SDS011;62896;51.032;3.712;2024-03-02T20:28:20;5.4;;;3.9;;
74457;SDS011;62896;51.032;3.712;2024-03-02T20:31:40;5.4;;;3.9;;
74457;SDS011;62896;51.032;3.712;2024-03-02T20:35:00;5.4;;;3.9;;
74457;SDS011;62896;51.032;3.712;2024-03-02T20:38:20;5.4;;;3.9;;
74457;SDS011;62896;51.032;3.712;2024-03-02T20:41:40;5.4;;;3.9;;
74457;SDS011;62896;51.032;3.712;2024-03-02T20:45:00;6.8;;;5;;
74457;SDS011;62896;51.032;3.712;2024-03-02T20:48:20;6.8;;;5;;